createdAt,value
2022-10-28T00:02:22.844Z,73.98
2022-10-28T00:05:24.651Z,75.29
2022-10-28T00:08:26.442Z,76.84
2022-10-28T00:11:32.279Z,80.02
2022-10-28T00:14:34.074Z,81.29
2022-10-28T00:17:35.876Z,81.04
2022-10-28T00:20:37.670Z,79.17
2022-10-28T00:23:39.720Z,77.99
2022-10-28T00:26:45.969Z,78.40
2022-10-28T00:29:47.798Z,79.11
2022-10-28T00:32:49.845Z,75.77
2022-10-28T00:35:51.701Z,75.43
2022-10-28T00:38:53.889Z,75.50
2022-10-28T00:41:57.969Z,72.07
2022-10-28T00:45:00.485Z,76.98
2022-10-28T00:48:02.848Z,77.80
2022-10-28T00:51:05.357Z,77.07
2022-10-28T00:54:07.128Z,78.84
2022-10-28T00:57:10.277Z,77.99
2022-10-28T01:00:12.480Z,78.46
2022-10-28T01:03:15.161Z,78.89
2022-10-28T01:06:16.985Z,76.16
2022-10-28T01:09:18.927Z,75.40
2022-10-28T01:12:29.491Z,74.33
2022-10-28T01:15:38.309Z,80.22
2022-10-28T01:18:43.005Z,72.68
2022-10-28T01:22:03.240Z,71.09
2022-10-28T01:25:14.179Z,69.40
2022-10-28T01:28:18.969Z,74.87
2022-10-28T01:31:20.730Z,76.76
2022-10-28T01:34:42.308Z,76.60
2022-10-28T01:37:57.128Z,75.38
2022-10-28T01:41:11.214Z,76.80
2022-10-28T01:44:25.118Z,78.20
2022-10-28T01:47:28.840Z,77.43
2022-10-28T01:50:38.107Z,78.83
2022-10-28T01:53:41.781Z,80.24
2022-10-28T01:56:43.910Z,77.05
2022-10-28T01:59:45.812Z,79.77
2022-10-28T02:02:47.683Z,79.89
2022-10-28T02:05:52.775Z,81.70
2022-10-28T02:09:13.426Z,81.54
2022-10-28T02:12:25.786Z,79.98
2022-10-28T02:15:53.993Z,72.44
2022-10-28T02:18:55.760Z,79.94
2022-10-28T02:22:15.739Z,78.76
2022-10-28T02:25:17.579Z,80.29
2022-10-28T02:28:21.883Z,76.60
2022-10-28T02:31:28.532Z,77.39
2022-10-28T02:34:39.935Z,76.05
2022-10-28T02:37:42.334Z,74.07
2022-10-28T02:40:44.571Z,72.36
2022-10-28T02:43:46.417Z,73.68
2022-10-28T02:46:48.711Z,75.52
2022-10-28T02:49:52.350Z,74.46
2022-10-28T02:52:55.544Z,79.77
2022-10-28T02:55:57.523Z,79.46
2022-10-28T02:58:59.306Z,80.56
2022-10-28T03:02:01.407Z,78.70
2022-10-28T03:05:04.091Z,79.95
2022-10-28T03:08:05.866Z,80.12
2022-10-28T03:11:07.686Z,79.66
2022-10-28T03:14:11.893Z,79.13
2022-10-28T03:17:16.429Z,75.55
2022-10-28T03:20:18.233Z,73.13
2022-10-28T03:23:20.005Z,75.75
2022-10-28T03:26:21.836Z,72.52
2022-10-28T03:29:23.615Z,76.79
2022-10-28T03:32:25.421Z,73.82
2022-10-28T03:35:27.213Z,70.82
2022-10-28T03:38:29.085Z,70.06
2022-10-28T03:41:30.962Z,70.74
2022-10-28T03:44:32.763Z,71.02
2022-10-28T03:47:34.818Z,72.71
2022-10-28T03:50:36.595Z,74.63
2022-10-28T03:53:38.425Z,74.70
2022-10-28T03:56:40.652Z,78.18
2022-10-28T03:59:42.488Z,77.90
2022-10-28T04:02:49.350Z,77.74
2022-10-28T04:05:51.289Z,76.87
2022-10-28T04:08:53.175Z,76.25
2022-10-28T04:11:55.049Z,76.74
2022-10-28T04:14:56.950Z,77.35
2022-10-28T04:17:58.749Z,75.18
2022-10-28T04:21:00.525Z,75.73
2022-10-28T04:24:02.333Z,74.74
2022-10-28T04:27:04.145Z,79.77
2022-10-28T04:30:06.289Z,81.79
2022-10-28T04:33:08.880Z,82.74
2022-10-28T04:36:10.674Z,79.15
2022-10-28T04:39:12.481Z,79.06
2022-10-28T04:42:14.329Z,76.37
2022-10-28T04:45:16.143Z,83.35
2022-10-28T04:48:17.963Z,81.57
2022-10-28T04:51:19.746Z,80.13
2022-10-28T04:54:21.600Z,85.94
2022-10-28T04:57:23.381Z,83.78
2022-10-28T05:00:25.569Z,82.27
2022-10-28T05:03:27.347Z,77.04
2022-10-28T05:06:29.162Z,74.43
2022-10-28T05:09:30.969Z,76.08
2022-10-28T05:12:32.768Z,74.67
2022-10-28T05:15:34.556Z,73.32
2022-10-28T05:18:36.399Z,75.46
2022-10-28T05:21:38.255Z,77.01
2022-10-28T05:24:40.299Z,75.12
2022-10-28T05:27:42.160Z,81.53
2022-10-28T05:30:44.082Z,77.34
2022-10-28T05:33:45.937Z,76.21
2022-10-28T05:36:47.871Z,74.51
2022-10-28T05:39:49.689Z,74.38
2022-10-28T05:42:51.776Z,77.35
2022-10-28T05:45:57.042Z,78.47
2022-10-28T05:48:58.882Z,75.51
2022-10-28T05:52:00.677Z,74.62
2022-10-28T05:55:02.480Z,76.30
2022-10-28T05:58:04.372Z,74.26
2022-10-28T06:01:06.812Z,76.03
2022-10-28T06:04:08.841Z,76.56
2022-10-28T06:07:10.797Z,74.90
2022-10-28T06:10:12.647Z,73.62
2022-10-28T06:13:12.940Z,73.18
2022-10-28T06:16:14.777Z,72.84
2022-10-28T06:19:16.586Z,73.66
2022-10-28T06:22:18.408Z,73.24
2022-10-28T06:25:20.661Z,75.17
2022-10-28T06:28:22.741Z,75.97
2022-10-28T06:31:24.625Z,74.81
2022-10-28T06:34:26.566Z,74.39
2022-10-28T06:37:28.425Z,78.43
2022-10-28T06:40:30.318Z,75.25
2022-10-28T06:43:32.214Z,76.38
2022-10-28T06:46:35.632Z,74.96
2022-10-28T06:49:37.541Z,74.32
2022-10-28T06:52:39.494Z,78.63
2022-10-28T06:55:41.380Z,79.63
2022-10-28T06:58:43.431Z,75.80
2022-10-28T07:01:45.549Z,72.66
2022-10-28T07:04:47.514Z,71.92
2022-10-28T07:07:49.994Z,72.07
2022-10-28T07:10:58.558Z,72.97
2022-10-28T07:14:00.361Z,71.67
2022-10-28T07:17:02.630Z,72.28
2022-10-28T07:20:04.616Z,71.54
2022-10-28T07:23:06.451Z,71.19
2022-10-28T07:26:08.397Z,71.10
2022-10-28T07:29:10.384Z,71.65
2022-10-28T07:32:12.192Z,72.79
2022-10-28T07:35:14.055Z,74.39
2022-10-28T07:38:16.026Z,80.09
2022-10-28T07:41:18.132Z,74.45
2022-10-28T07:44:19.990Z,71.93
2022-10-28T07:47:22.354Z,73.31
2022-10-28T07:50:24.273Z,72.07
2022-10-28T07:53:28.640Z,73.14
2022-10-28T07:56:30.858Z,73.65
2022-10-28T07:59:32.902Z,72.07
2022-10-28T08:02:34.744Z,71.00
2022-10-28T08:05:36.665Z,70.83
2022-10-28T08:08:38.710Z,72.02
2022-10-28T08:11:40.765Z,72.84
2022-10-28T08:14:42.673Z,71.62
2022-10-28T08:17:44.521Z,71.91
2022-10-28T08:20:46.381Z,71.51
2022-10-28T08:23:48.335Z,71.38
2022-10-28T08:26:50.221Z,70.77
2022-10-28T08:29:54.071Z,71.22
2022-10-28T08:32:56.246Z,72.79
2022-10-28T08:35:58.366Z,76.61
2022-10-28T08:39:01.679Z,74.50
2022-10-28T08:42:19.830Z,72.56
2022-10-28T08:45:30.901Z,74.38
2022-10-28T08:48:35.929Z,75.67
2022-10-28T08:51:56.309Z,71.69
2022-10-28T08:55:17.566Z,77.25
2022-10-28T08:58:24.850Z,71.73
2022-10-28T09:01:39.299Z,73.10
2022-10-28T09:04:44.935Z,72.95
2022-10-28T09:07:46.745Z,71.04
2022-10-28T09:10:53.375Z,73.46
2022-10-28T09:14:01.305Z,72.82
2022-10-28T09:17:03.227Z,71.89
2022-10-28T09:20:26.219Z,67.68
2022-10-28T09:23:32.500Z,69.33
2022-10-28T09:26:37.594Z,69.87
2022-10-28T09:29:45.197Z,70.79
2022-10-28T09:33:07.253Z,67.09
2022-10-28T09:36:11.586Z,71.30
2022-10-28T09:39:14.992Z,72.06
2022-10-28T09:42:22.433Z,72.55
2022-10-28T09:45:25.811Z,69.19
2022-10-28T09:48:28.720Z,67.32
2022-10-28T09:51:33.673Z,75.98
2022-10-28T09:54:40.145Z,74.90
2022-10-28T09:57:41.994Z,71.15
2022-10-28T10:00:43.954Z,72.98
2022-10-28T10:03:49.116Z,72.25
2022-10-28T10:06:52.478Z,67.45
2022-10-28T10:09:55.902Z,73.56
2022-10-28T10:12:59.489Z,72.58
2022-10-28T10:16:13.208Z,69.22
2022-10-28T10:19:15.180Z,74.96
2022-10-28T10:22:36.283Z,69.34
2022-10-28T10:25:38.141Z,71.90
2022-10-28T10:28:44.057Z,66.39
2022-10-28T10:31:46.167Z,66.49
2022-10-28T10:35:06.992Z,65.50
2022-10-28T10:38:13.910Z,66.82
2022-10-28T10:41:34.403Z,66.41
2022-10-28T10:44:36.323Z,65.63
2022-10-28T10:47:38.252Z,64.82
2022-10-28T10:50:40.591Z,65.39
2022-10-28T10:53:46.157Z,68.09
2022-10-28T10:56:48.380Z,69.29
2022-10-28T10:59:52.523Z,70.46
2022-10-28T11:02:55.952Z,67.59
2022-10-28T11:06:22.507Z,67.36
2022-10-28T11:09:32.788Z,70.77
2022-10-28T11:12:38.933Z,75.49
2022-10-28T11:15:40.749Z,71.73
2022-10-28T11:18:43.867Z,69.38
2022-10-28T11:21:50.803Z,70.08
2022-10-28T11:24:52.697Z,67.79
2022-10-28T11:28:11.645Z,72.90
2022-10-28T11:31:13.468Z,68.72
2022-10-28T11:34:21.135Z,69.99
2022-10-28T11:37:38.338Z,69.99
2022-10-28T11:40:40.706Z,69.78
2022-10-28T11:43:53.613Z,73.27
2022-10-28T11:47:06.878Z,66.60
2022-10-28T11:50:20.859Z,65.55
2022-10-28T11:53:37.140Z,70.14
2022-10-28T11:56:39.862Z,72.39
2022-10-28T12:00:00.477Z,70.09
2022-10-28T12:03:05.659Z,69.81
2022-10-28T12:06:13.730Z,71.57
2022-10-28T12:09:35.885Z,71.95
2022-10-28T12:12:41.156Z,74.82
2022-10-28T12:15:46.105Z,74.03
2022-10-28T12:19:01.294Z,75.70
2022-10-28T12:22:05.831Z,72.86
2022-10-28T12:25:08.831Z,74.52
2022-10-28T12:31:25.892Z,75.13
2022-10-28T12:34:38.863Z,69.33
2022-10-28T12:37:44.748Z,69.16
2022-10-28T12:40:51.903Z,71.90
2022-10-28T12:44:02.216Z,72.07
2022-10-28T12:47:22.329Z,69.38
2022-10-28T12:50:33.346Z,68.66
2022-10-28T12:53:35.563Z,70.06
2022-10-28T12:56:38.196Z,68.90
2022-10-28T13:00:06.507Z,73.38
2022-10-28T13:03:11.447Z,69.76
2022-10-28T13:06:21.848Z,72.16
2022-10-28T13:09:23.642Z,69.12
2022-10-28T13:12:48.717Z,69.86
2022-10-28T13:15:53.424Z,68.76
2022-10-28T13:19:21.511Z,74.80
2022-10-28T13:22:46.027Z,74.94
2022-10-28T13:26:06.173Z,71.79
2022-10-28T13:29:08.162Z,72.75
2022-10-28T13:32:28.184Z,73.26
2022-10-28T13:35:29.968Z,69.98
2022-10-28T13:38:31.819Z,69.32
2022-10-28T13:41:37.396Z,69.79
2022-10-28T13:44:49.704Z,71.54
2022-10-28T13:47:51.610Z,74.75
2022-10-28T13:51:05.550Z,71.46
2022-10-28T13:54:12.508Z,69.99
2022-10-28T13:57:23.745Z,73.39
2022-10-28T14:00:25.633Z,73.50
2022-10-28T14:03:27.560Z,73.44
2022-10-28T14:06:33.119Z,71.02
2022-10-28T14:09:35.257Z,75.74
2022-10-28T14:12:37.071Z,70.33
2022-10-28T14:15:38.887Z,68.83
2022-10-28T14:18:44.340Z,69.16
2022-10-28T14:21:47.943Z,72.08
2022-10-28T14:24:50.225Z,73.47
2022-10-28T14:27:52.283Z,69.86
2022-10-28T14:31:10.410Z,70.92
2022-10-28T14:34:12.163Z,75.04
2022-10-28T14:37:19.993Z,77.36
2022-10-28T14:40:24.656Z,75.73
2022-10-28T14:43:31.544Z,70.61
2022-10-28T14:46:54.725Z,71.55
2022-10-28T14:50:02.801Z,76.40
2022-10-28T14:53:05.532Z,74.16
2022-10-28T14:56:19.734Z,76.55
2022-10-28T14:59:24.886Z,72.15
2022-10-28T15:02:29.950Z,73.17
2022-10-28T15:05:32.440Z,77.06
2022-10-28T15:08:34.328Z,79.34
2022-10-28T15:11:36.200Z,74.22
2022-10-28T15:14:52.135Z,73.60
2022-10-28T15:17:54.232Z,78.56
2022-10-28T15:21:12.170Z,75.50
2022-10-28T15:24:13.992Z,75.75
2022-10-28T15:27:15.865Z,77.15
2022-10-28T15:30:23.704Z,73.16
2022-10-28T15:33:33.142Z,74.00
2022-10-28T15:36:35.018Z,73.56
2022-10-28T15:39:37.536Z,73.74
2022-10-28T15:42:41.204Z,70.80
2022-10-28T15:45:43.075Z,75.25
2022-10-28T15:48:44.860Z,72.44
2022-10-28T15:52:04.797Z,74.82
2022-10-28T15:55:18.925Z,77.80
2022-10-28T15:58:20.754Z,80.88
2022-10-28T16:01:30.534Z,78.71
2022-10-28T16:04:40.579Z,79.05
2022-10-28T16:07:45.344Z,75.35
2022-10-28T16:10:54.622Z,75.01
2022-10-28T16:13:56.430Z,74.56
2022-10-28T16:17:27.592Z,75.52
2022-10-28T16:20:29.460Z,81.39
2022-10-28T16:23:38.602Z,76.99
2022-10-28T16:26:40.424Z,76.78
2022-10-28T16:29:42.251Z,79.82
2022-10-28T16:32:44.671Z,79.97
2022-10-28T16:35:46.470Z,75.96
2022-10-28T16:38:48.307Z,76.27
2022-10-28T16:41:50.160Z,84.77
2022-10-28T16:44:52.149Z,80.65
2022-10-28T16:47:54.210Z,80.14
2022-10-28T16:50:59.736Z,76.54
2022-10-28T16:54:01.608Z,75.97
2022-10-28T16:57:03.540Z,77.30
2022-10-28T17:00:05.685Z,77.91
2022-10-28T17:03:07.599Z,80.70
2022-10-28T17:06:10.492Z,79.39
2022-10-28T17:09:12.326Z,75.94
2022-10-28T17:12:14.855Z,77.65
2022-10-28T17:15:16.755Z,80.08
2022-10-28T17:18:19.463Z,77.84
2022-10-28T17:21:21.317Z,79.08
2022-10-28T17:24:23.120Z,79.33
2022-10-28T17:27:24.969Z,77.38
2022-10-28T17:30:26.814Z,78.19
2022-10-28T17:33:28.987Z,74.50
2022-10-28T17:36:30.858Z,72.19
2022-10-28T17:39:32.686Z,73.72
2022-10-28T17:42:35.392Z,74.64
2022-10-28T17:45:37.265Z,75.04
2022-10-28T17:48:40.253Z,73.99
2022-10-28T17:51:42.080Z,74.71
2022-10-28T17:54:43.966Z,75.67
2022-10-28T17:57:45.780Z,74.89
2022-10-28T18:00:47.573Z,75.92
2022-10-28T18:03:49.825Z,78.32
2022-10-28T18:06:52.548Z,78.89
2022-10-28T18:09:54.323Z,79.58
2022-10-28T18:12:56.434Z,78.98
2022-10-28T18:16:04.723Z,75.32
2022-10-28T18:19:07.381Z,78.29
2022-10-28T18:22:09.174Z,78.30
2022-10-28T18:25:11.011Z,73.46
2022-10-28T18:28:12.784Z,74.06
2022-10-28T18:31:15.570Z,73.63
2022-10-28T18:34:17.499Z,73.51
2022-10-28T18:37:19.318Z,72.34
2022-10-28T18:40:21.134Z,77.97
2022-10-28T18:43:23.758Z,73.22
2022-10-28T18:46:25.849Z,73.02
2022-10-28T18:49:27.655Z,73.64
2022-10-28T18:52:29.472Z,74.95
2022-10-28T18:55:31.297Z,75.10
2022-10-28T18:58:33.217Z,79.45
2022-10-28T19:01:35.790Z,76.24
2022-10-28T19:04:37.670Z,77.45
2022-10-28T19:07:39.489Z,76.03
2022-10-28T19:10:41.436Z,75.54
2022-10-28T19:13:44.114Z,75.26
2022-10-28T19:16:45.881Z,75.97
2022-10-28T19:19:49.129Z,76.23
2022-10-28T19:22:51.018Z,77.84
2022-10-28T19:25:56.372Z,76.41
2022-10-28T19:28:58.196Z,76.99
2022-10-28T19:32:00.154Z,75.69
2022-10-28T19:35:01.984Z,75.72
2022-10-28T19:38:03.800Z,76.16
2022-10-28T19:41:06.798Z,78.92
2022-10-28T19:44:08.661Z,75.58
2022-10-28T19:47:10.507Z,82.19
2022-10-28T19:50:12.353Z,81.02
2022-10-28T19:53:14.137Z,75.63
2022-10-28T19:56:19.169Z,75.26
2022-10-28T19:59:21.910Z,78.45
2022-10-28T20:02:23.802Z,79.86
2022-10-28T20:05:25.672Z,75.85
2022-10-28T20:08:27.674Z,73.69
2022-10-28T20:11:31.678Z,73.66
2022-10-28T20:14:33.545Z,78.15
2022-10-28T20:17:35.387Z,75.10
2022-10-28T20:20:37.172Z,76.71
2022-10-28T20:23:39.348Z,76.83
2022-10-28T20:26:41.212Z,74.14
2022-10-28T20:29:43.008Z,74.78
2022-10-28T20:32:44.815Z,75.25
2022-10-28T20:35:46.594Z,78.40
2022-10-28T20:38:48.396Z,78.69
2022-10-28T20:41:51.100Z,75.98
2022-10-28T20:44:52.912Z,73.68
2022-10-28T20:47:54.719Z,76.39
2022-10-28T20:50:57.658Z,73.78
2022-10-28T20:53:59.555Z,79.38
2022-10-28T20:57:01.349Z,73.61
2022-10-28T21:00:03.840Z,73.34
2022-10-28T21:03:05.734Z,74.96
2022-10-28T21:06:07.811Z,75.20
2022-10-28T21:09:09.712Z,72.83
2022-10-28T21:12:11.527Z,77.84
2022-10-28T21:15:13.363Z,77.63
2022-10-28T21:18:15.249Z,79.53
2022-10-28T21:21:17.686Z,75.18
2022-10-28T21:24:19.545Z,75.09
2022-10-28T21:27:21.392Z,74.53
2022-10-28T21:30:23.369Z,76.76
2022-10-28T21:33:25.227Z,74.44
2022-10-28T21:36:27.095Z,77.98
2022-10-28T21:39:28.942Z,77.98
2022-10-28T21:42:30.748Z,72.59
2022-10-28T21:45:32.554Z,76.35
2022-10-28T21:48:34.722Z,76.16
2022-10-28T21:51:36.531Z,72.22
2022-10-28T21:54:38.433Z,74.10
2022-10-28T21:57:40.318Z,71.71
2022-10-28T22:00:43.036Z,72.44
2022-10-28T22:03:44.821Z,77.43
2022-10-28T22:09:49.407Z,77.36
2022-10-28T22:12:51.184Z,77.50
2022-10-28T22:15:56.873Z,73.09
2022-10-28T22:18:59.185Z,72.39
2022-10-28T22:22:00.995Z,76.95
2022-10-28T22:25:06.149Z,75.52
2022-10-28T22:28:11.224Z,80.38
2022-10-28T22:31:14.169Z,81.33
2022-10-28T22:34:15.979Z,72.60
2022-10-28T22:37:18.604Z,73.44
2022-10-28T22:40:20.385Z,73.55
2022-10-28T22:43:22.180Z,71.28
2022-10-28T22:46:25.948Z,71.85
2022-10-28T22:49:27.767Z,71.59
2022-10-28T22:52:29.563Z,72.30
2022-10-28T22:55:31.345Z,72.28
2022-10-28T22:58:33.151Z,74.52
2022-10-28T23:01:35.036Z,76.83
2022-10-28T23:04:36.952Z,74.02
2022-10-28T23:07:38.778Z,75.17
2022-10-28T23:10:40.720Z,74.97
2022-10-28T23:13:42.532Z,73.30
2022-10-28T23:16:44.309Z,72.76
2022-10-28T23:19:46.112Z,73.62
2022-10-28T23:22:47.997Z,76.03
2022-10-28T23:25:53.479Z,77.52
2022-10-28T23:28:56.398Z,77.50
2022-10-28T23:31:58.196Z,79.32
2022-10-28T23:35:00.031Z,81.43
2022-10-28T23:38:02.860Z,83.11
2022-10-28T23:41:05.443Z,82.74
2022-10-28T23:44:07.264Z,79.49
2022-10-28T23:47:09.088Z,75.85
2022-10-28T23:50:11.078Z,77.22
2022-10-28T23:53:12.932Z,78.66
2022-10-28T23:56:14.778Z,75.50
2022-10-28T23:59:16.621Z,74.10
